sensor_id;sensor_type;location;lat;lon;timestamp;P1;durP1;ratioP1;P2;durP2;ratioP2
73142;SDS011;61343;53.694;9.988;2022-07-23T00:01:25;6.57;;;2.10;;
73142;SDS011;61343;53.694;9.988;2022-07-23T00:03:52;6.80;;;2.00;;
73142;SDS011;61343;53.694;9.988;2022-07-23T00:06:19;5.70;;;1.70;;
73142;SDS011;61343;53.694;9.988;2022-07-23T00:08:44;6.90;;;1.70;;
73142;SDS011;61343;53.694;9.988;2022-07-23T00:11:09;4.27;;;1.60;;
73142;SDS011;61343;53.694;9.988;2022-07-23T00:13:35;4.63;;;1.63;;
73142;SDS011;61343;53.694;9.988;2022-07-23T00:16:00;5.47;;;1.73;;
73142;SDS011;61343;53.694;9.988;2022-07-23T00:18:26;5.50;;;1.70;;
73142;SDS011;61343;53.694;9.988;2022-07-23T00:20:52;4.97;;;1.60;;
73142;SDS011;61343;53.694;9.988;2022-07-23T00:23:17;15.03;;;2.10;;
73142;SDS011;61343;53.694;9.988;2022-07-23T00:25:43;5.30;;;1.77;;
73142;SDS011;61343;53.694;9.988;2022-07-23T00:28:10;4.20;;;1.45;;
73142;SDS011;61343;53.694;9.988;2022-07-23T00:30:35;5.05;;;1.65;;
73142;SDS011;61343;53.694;9.988;2022-07-23T00:33:02;5.60;;;1.70;;
73142;SDS011;61343;53.694;9.988;2022-07-23T00:35:30;4.85;;;1.77;;
73142;SDS011;61343;53.694;9.988;2022-07-23T00:37:58;4.90;;;1.70;;
73142;SDS011;61343;53.694;9.988;2022-07-23T00:40:24;4.60;;;1.60;;
73142;SDS011;61343;53.694;9.988;2022-07-23T00:42:50;5.80;;;1.70;;
73142;SDS011;61343;53.694;9.988;2022-07-23T00:45:15;5.28;;;2.00;;
73142;SDS011;61343;53.694;9.988;2022-07-23T00:47:42;5.83;;;2.00;;
73142;SDS011;61343;53.694;9.988;2022-07-23T00:50:08;7.83;;;1.93;;
73142;SDS011;61343;53.694;9.988;2022-07-23T00:52:34;5.23;;;1.60;;
73142;SDS011;61343;53.694;9.988;2022-07-23T00:55:01;4.78;;;1.80;;
73142;SDS011;61343;53.694;9.988;2022-07-23T00:57:26;4.67;;;1.70;;
73142;SDS011;61343;53.694;9.988;2022-07-23T00:59:52;5.30;;;1.70;;
73142;SDS011;61343;53.694;9.988;2022-07-23T01:02:17;4.33;;;1.67;;
73142;SDS011;61343;53.694;9.988;2022-07-23T01:04:42;4.37;;;1.70;;
73142;SDS011;61343;53.694;9.988;2022-07-23T01:07:08;4.97;;;1.70;;
73142;SDS011;61343;53.694;9.988;2022-07-23T01:09:33;5.30;;;2.03;;
73142;SDS011;61343;53.694;9.988;2022-07-23T01:11:59;4.45;;;1.70;;
73142;SDS011;61343;53.694;9.988;2022-07-23T01:14:25;5.00;;;1.95;;
73142;SDS011;61343;53.694;9.988;2022-07-23T01:16:51;5.37;;;1.90;;
73142;SDS011;61343;53.694;9.988;2022-07-23T01:19:17;5.50;;;1.80;;
73142;SDS011;61343;53.694;9.988;2022-07-23T01:21:47;6.13;;;2.00;;
73142;SDS011;61343;53.694;9.988;2022-07-23T01:24:14;4.53;;;1.60;;
73142;SDS011;61343;53.694;9.988;2022-07-23T01:26:42;5.25;;;1.80;;
73142;SDS011;61343;53.694;9.988;2022-07-23T01:29:08;5.95;;;1.98;;
73142;SDS011;61343;53.694;9.988;2022-07-23T01:31:34;6.93;;;2.10;;
73142;SDS011;61343;53.694;9.988;2022-07-23T01:33:59;21.80;;;3.73;;
73142;SDS011;61343;53.694;9.988;2022-07-23T01:36:25;8.10;;;2.00;;
73142;SDS011;61343;53.694;9.988;2022-07-23T01:38:50;5.20;;;1.73;;
73142;SDS011;61343;53.694;9.988;2022-07-23T01:41:15;5.17;;;1.70;;
73142;SDS011;61343;53.694;9.988;2022-07-23T01:43:41;5.77;;;1.70;;
73142;SDS011;61343;53.694;9.988;2022-07-23T01:46:07;6.93;;;1.80;;
73142;SDS011;61343;53.694;9.988;2022-07-23T01:48:32;5.80;;;2.10;;
73142;SDS011;61343;53.694;9.988;2022-07-23T01:50:57;5.40;;;1.77;;
73142;SDS011;61343;53.694;9.988;2022-07-23T01:53:23;7.87;;;1.97;;
73142;SDS011;61343;53.694;9.988;2022-07-23T01:55:48;5.73;;;1.93;;
73142;SDS011;61343;53.694;9.988;2022-07-23T01:58:13;5.53;;;1.70;;
73142;SDS011;61343;53.694;9.988;2022-07-23T02:00:39;5.33;;;1.97;;
73142;SDS011;61343;53.694;9.988;2022-07-23T02:03:04;5.47;;;2.10;;
73142;SDS011;61343;53.694;9.988;2022-07-23T02:05:29;6.93;;;1.77;;
73142;SDS011;61343;53.694;9.988;2022-07-23T02:07:56;4.97;;;1.98;;
73142;SDS011;61343;53.694;9.988;2022-07-23T02:10:22;5.90;;;1.73;;
73142;SDS011;61343;53.694;9.988;2022-07-23T02:12:47;6.27;;;1.97;;
73142;SDS011;61343;53.694;9.988;2022-07-23T02:15:13;5.70;;;2.10;;
73142;SDS011;61343;53.694;9.988;2022-07-23T02:17:38;7.80;;;2.37;;
73142;SDS011;61343;53.694;9.988;2022-07-23T02:20:04;4.83;;;2.10;;
73142;SDS011;61343;53.694;9.988;2022-07-23T02:22:31;4.95;;;2.20;;
73142;SDS011;61343;53.694;9.988;2022-07-23T02:24:57;5.43;;;2.10;;
73142;SDS011;61343;53.694;9.988;2022-07-23T02:27:22;6.65;;;2.30;;
73142;SDS011;61343;53.694;9.988;2022-07-23T02:29:48;5.30;;;2.30;;
73142;SDS011;61343;53.694;9.988;2022-07-23T02:32:13;6.37;;;2.03;;
73142;SDS011;61343;53.694;9.988;2022-07-23T02:34:39;4.63;;;2.00;;
73142;SDS011;61343;53.694;9.988;2022-07-23T02:37:04;5.83;;;2.03;;
73142;SDS011;61343;53.694;9.988;2022-07-23T02:39:29;4.43;;;2.00;;
73142;SDS011;61343;53.694;9.988;2022-07-23T02:41:54;6.63;;;2.00;;
73142;SDS011;61343;53.694;9.988;2022-07-23T02:44:20;5.97;;;2.20;;
73142;SDS011;61343;53.694;9.988;2022-07-23T02:46:45;5.67;;;2.00;;
73142;SDS011;61343;53.694;9.988;2022-07-23T02:49:10;6.23;;;2.03;;
73142;SDS011;61343;53.694;9.988;2022-07-23T02:51:35;6.03;;;1.90;;
73142;SDS011;61343;53.694;9.988;2022-07-23T02:54:01;4.43;;;1.67;;
73142;SDS011;61343;53.694;9.988;2022-07-23T02:56:26;6.37;;;2.03;;
73142;SDS011;61343;53.694;9.988;2022-07-23T02:58:51;5.67;;;1.90;;
73142;SDS011;61343;53.694;9.988;2022-07-23T03:01:17;6.10;;;1.90;;
73142;SDS011;61343;53.694;9.988;2022-07-23T03:03:42;6.60;;;2.20;;
73142;SDS011;61343;53.694;9.988;2022-07-23T03:06:07;5.10;;;2.00;;
73142;SDS011;61343;53.694;9.988;2022-07-23T03:08:32;4.33;;;1.97;;
73142;SDS011;61343;53.694;9.988;2022-07-23T03:10:58;5.00;;;1.90;;
73142;SDS011;61343;53.694;9.988;2022-07-23T03:13:23;5.23;;;2.00;;
73142;SDS011;61343;53.694;9.988;2022-07-23T03:15:48;6.17;;;2.10;;
73142;SDS011;61343;53.694;9.988;2022-07-23T03:18:14;4.93;;;2.00;;
73142;SDS011;61343;53.694;9.988;2022-07-23T03:20:39;6.03;;;2.00;;
73142;SDS011;61343;53.694;9.988;2022-07-23T03:23:04;6.45;;;2.65;;
73142;SDS011;61343;53.694;9.988;2022-07-23T03:25:30;6.03;;;2.17;;
73142;SDS011;61343;53.694;9.988;2022-07-23T03:27:55;5.13;;;2.10;;
73142;SDS011;61343;53.694;9.988;2022-07-23T03:30:20;5.50;;;1.90;;
73142;SDS011;61343;53.694;9.988;2022-07-23T03:32:46;6.15;;;2.10;;
73142;SDS011;61343;53.694;9.988;2022-07-23T03:35:12;5.60;;;1.90;;
73142;SDS011;61343;53.694;9.988;2022-07-23T03:37:37;6.23;;;1.83;;
73142;SDS011;61343;53.694;9.988;2022-07-23T03:40:02;6.60;;;2.20;;
73142;SDS011;61343;53.694;9.988;2022-07-23T03:42:28;6.80;;;2.10;;
73142;SDS011;61343;53.694;9.988;2022-07-23T03:44:53;6.20;;;2.10;;
73142;SDS011;61343;53.694;9.988;2022-07-23T03:47:19;5.90;;;2.07;;
73142;SDS011;61343;53.694;9.988;2022-07-23T03:49:46;5.22;;;2.10;;
73142;SDS011;61343;53.694;9.988;2022-07-23T03:52:12;4.50;;;1.70;;
73142;SDS011;61343;53.694;9.988;2022-07-23T03:54:38;6.73;;;1.90;;
73142;SDS011;61343;53.694;9.988;2022-07-23T03:57:03;7.10;;;1.93;;
73142;SDS011;61343;53.694;9.988;2022-07-23T03:59:29;8.57;;;2.20;;
73142;SDS011;61343;53.694;9.988;2022-07-23T04:01:54;6.03;;;2.00;;
73142;SDS011;61343;53.694;9.988;2022-07-23T04:04:19;5.53;;;2.03;;
73142;SDS011;61343;53.694;9.988;2022-07-23T04:06:45;5.03;;;2.10;;
73142;SDS011;61343;53.694;9.988;2022-07-23T04:09:10;4.70;;;1.80;;
73142;SDS011;61343;53.694;9.988;2022-07-23T04:11:36;6.07;;;2.10;;
73142;SDS011;61343;53.694;9.988;2022-07-23T04:14:01;5.93;;;2.00;;
73142;SDS011;61343;53.694;9.988;2022-07-23T04:16:26;8.70;;;2.10;;
73142;SDS011;61343;53.694;9.988;2022-07-23T04:18:51;8.30;;;2.10;;
73142;SDS011;61343;53.694;9.988;2022-07-23T04:21:17;8.47;;;2.30;;
73142;SDS011;61343;53.694;9.988;2022-07-23T04:23:42;4.77;;;2.10;;
73142;SDS011;61343;53.694;9.988;2022-07-23T04:26:07;5.27;;;1.90;;
73142;SDS011;61343;53.694;9.988;2022-07-23T04:28:33;7.00;;;2.00;;
73142;SDS011;61343;53.694;9.988;2022-07-23T04:30:58;6.93;;;2.03;;
73142;SDS011;61343;53.694;9.988;2022-07-23T04:33:24;5.78;;;1.80;;
73142;SDS011;61343;53.694;9.988;2022-07-23T04:35:49;6.30;;;1.97;;
73142;SDS011;61343;53.694;9.988;2022-07-23T04:38:14;4.90;;;1.80;;
73142;SDS011;61343;53.694;9.988;2022-07-23T04:40:39;6.37;;;2.53;;
73142;SDS011;61343;53.694;9.988;2022-07-23T04:43:05;5.37;;;2.00;;
73142;SDS011;61343;53.694;9.988;2022-07-23T04:45:30;4.70;;;2.03;;
73142;SDS011;61343;53.694;9.988;2022-07-23T04:47:55;5.13;;;2.13;;
73142;SDS011;61343;53.694;9.988;2022-07-23T04:50:22;7.38;;;2.13;;
73142;SDS011;61343;53.694;9.988;2022-07-23T04:52:48;5.03;;;1.75;;
73142;SDS011;61343;53.694;9.988;2022-07-23T04:55:14;6.10;;;2.10;;
73142;SDS011;61343;53.694;9.988;2022-07-23T04:57:39;5.65;;;2.40;;
73142;SDS011;61343;53.694;9.988;2022-07-23T05:00:05;5.80;;;1.90;;
73142;SDS011;61343;53.694;9.988;2022-07-23T05:02:31;6.38;;;2.58;;
73142;SDS011;61343;53.694;9.988;2022-07-23T05:04:56;11.73;;;5.43;;
73142;SDS011;61343;53.694;9.988;2022-07-23T05:07:22;4.63;;;2.10;;
73142;SDS011;61343;53.694;9.988;2022-07-23T05:09:47;7.20;;;1.73;;
73142;SDS011;61343;53.694;9.988;2022-07-23T05:12:12;4.83;;;1.70;;
73142;SDS011;61343;53.694;9.988;2022-07-23T05:14:37;7.83;;;1.90;;
73142;SDS011;61343;53.694;9.988;2022-07-23T05:17:03;3.77;;;1.40;;
73142;SDS011;61343;53.694;9.988;2022-07-23T05:19:28;5.27;;;1.70;;
73142;SDS011;61343;53.694;9.988;2022-07-23T05:21:54;4.30;;;1.60;;
73142;SDS011;61343;53.694;9.988;2022-07-23T05:24:19;5.17;;;1.47;;
73142;SDS011;61343;53.694;9.988;2022-07-23T05:26:44;8.43;;;1.70;;
73142;SDS011;61343;53.694;9.988;2022-07-23T05:29:09;6.30;;;1.97;;
73142;SDS011;61343;53.694;9.988;2022-07-23T05:31:35;5.90;;;1.50;;
73142;SDS011;61343;53.694;9.988;2022-07-23T05:34:00;4.37;;;1.50;;
73142;SDS011;61343;53.694;9.988;2022-07-23T05:36:25;5.10;;;1.57;;
73142;SDS011;61343;53.694;9.988;2022-07-23T05:38:51;4.80;;;1.40;;
73142;SDS011;61343;53.694;9.988;2022-07-23T05:41:16;4.83;;;1.40;;
73142;SDS011;61343;53.694;9.988;2022-07-23T05:43:42;4.70;;;1.40;;
73142;SDS011;61343;53.694;9.988;2022-07-23T05:46:08;4.25;;;1.30;;
73142;SDS011;61343;53.694;9.988;2022-07-23T05:48:34;3.60;;;1.20;;
73142;SDS011;61343;53.694;9.988;2022-07-23T05:50:59;4.63;;;1.40;;
73142;SDS011;61343;53.694;9.988;2022-07-23T05:53:25;4.53;;;1.40;;
73142;SDS011;61343;53.694;9.988;2022-07-23T05:55:51;4.97;;;1.60;;
73142;SDS011;61343;53.694;9.988;2022-07-23T05:58:16;5.43;;;1.40;;
73142;SDS011;61343;53.694;9.988;2022-07-23T06:00:41;3.80;;;1.33;;
73142;SDS011;61343;53.694;9.988;2022-07-23T06:03:07;4.37;;;1.50;;
73142;SDS011;61343;53.694;9.988;2022-07-23T06:05:32;3.37;;;1.10;;
73142;SDS011;61343;53.694;9.988;2022-07-23T06:07:57;4.07;;;1.40;;
73142;SDS011;61343;53.694;9.988;2022-07-23T06:10:23;6.77;;;2.30;;
73142;SDS011;61343;53.694;9.988;2022-07-23T06:12:48;4.03;;;1.40;;
73142;SDS011;61343;53.694;9.988;2022-07-23T06:15:13;5.10;;;1.50;;
73142;SDS011;61343;53.694;9.988;2022-07-23T06:17:39;4.20;;;1.52;;
73142;SDS011;61343;53.694;9.988;2022-07-23T06:20:08;5.73;;;1.40;;
73142;SDS011;61343;53.694;9.988;2022-07-23T06:22:35;6.35;;;1.40;;
73142;SDS011;61343;53.694;9.988;2022-07-23T06:25:00;4.28;;;1.52;;
73142;SDS011;61343;53.694;9.988;2022-07-23T06:27:26;4.10;;;1.30;;
73142;SDS011;61343;53.694;9.988;2022-07-23T06:29:51;4.93;;;1.60;;
73142;SDS011;61343;53.694;9.988;2022-07-23T06:32:17;6.32;;;1.48;;
73142;SDS011;61343;53.694;9.988;2022-07-23T06:34:42;10.10;;;2.50;;
73142;SDS011;61343;53.694;9.988;2022-07-23T06:37:07;4.80;;;1.43;;
73142;SDS011;61343;53.694;9.988;2022-07-23T06:39:32;5.20;;;1.60;;
73142;SDS011;61343;53.694;9.988;2022-07-23T06:41:58;5.00;;;1.60;;
73142;SDS011;61343;53.694;9.988;2022-07-23T06:44:24;4.97;;;1.30;;
73142;SDS011;61343;53.694;9.988;2022-07-23T06:46:49;4.57;;;1.50;;
73142;SDS011;61343;53.694;9.988;2022-07-23T06:49:14;4.83;;;1.57;;
73142;SDS011;61343;53.694;9.988;2022-07-23T06:51:39;5.90;;;1.60;;
73142;SDS011;61343;53.694;9.988;2022-07-23T06:54:05;4.37;;;1.47;;
73142;SDS011;61343;53.694;9.988;2022-07-23T06:56:30;4.17;;;1.50;;
73142;SDS011;61343;53.694;9.988;2022-07-23T06:58:56;4.53;;;1.50;;
73142;SDS011;61343;53.694;9.988;2022-07-23T07:01:21;4.80;;;1.60;;
73142;SDS011;61343;53.694;9.988;2022-07-23T07:03:47;4.47;;;1.40;;
73142;SDS011;61343;53.694;9.988;2022-07-23T07:06:12;4.80;;;1.57;;
73142;SDS011;61343;53.694;9.988;2022-07-23T07:08:37;4.63;;;1.50;;
73142;SDS011;61343;53.694;9.988;2022-07-23T07:11:03;3.80;;;1.20;;
73142;SDS011;61343;53.694;9.988;2022-07-23T07:13:28;3.87;;;1.40;;
73142;SDS011;61343;53.694;9.988;2022-07-23T07:15:53;4.33;;;1.47;;
73142;SDS011;61343;53.694;9.988;2022-07-23T07:18:19;5.27;;;1.70;;
73142;SDS011;61343;53.694;9.988;2022-07-23T07:20:44;4.50;;;1.40;;
73142;SDS011;61343;53.694;9.988;2022-07-23T07:23:09;5.27;;;1.60;;
73142;SDS011;61343;53.694;9.988;2022-07-23T07:25:34;4.43;;;1.70;;
73142;SDS011;61343;53.694;9.988;2022-07-23T07:28:00;5.20;;;1.30;;
73142;SDS011;61343;53.694;9.988;2022-07-23T07:30:25;6.57;;;1.53;;
73142;SDS011;61343;53.694;9.988;2022-07-23T07:32:51;5.75;;;1.30;;
73142;SDS011;61343;53.694;9.988;2022-07-23T07:35:16;5.23;;;1.50;;
73142;SDS011;61343;53.694;9.988;2022-07-23T07:37:41;6.83;;;1.60;;
73142;SDS011;61343;53.694;9.988;2022-07-23T07:40:07;7.33;;;1.40;;
73142;SDS011;61343;53.694;9.988;2022-07-23T07:42:33;4.50;;;1.20;;
73142;SDS011;61343;53.694;9.988;2022-07-23T07:44:58;3.83;;;1.20;;
73142;SDS011;61343;53.694;9.988;2022-07-23T07:47:23;5.23;;;1.40;;
73142;SDS011;61343;53.694;9.988;2022-07-23T07:49:48;4.93;;;1.30;;
73142;SDS011;61343;53.694;9.988;2022-07-23T07:52:14;4.10;;;1.23;;
73142;SDS011;61343;53.694;9.988;2022-07-23T07:54:39;7.40;;;1.40;;
73142;SDS011;61343;53.694;9.988;2022-07-23T07:57:04;8.50;;;1.40;;
73142;SDS011;61343;53.694;9.988;2022-07-23T07:59:30;4.70;;;1.30;;
73142;SDS011;61343;53.694;9.988;2022-07-23T08:01:55;3.50;;;1.30;;
73142;SDS011;61343;53.694;9.988;2022-07-23T08:04:20;5.10;;;1.47;;
73142;SDS011;61343;53.694;9.988;2022-07-23T08:06:46;5.30;;;1.50;;
73142;SDS011;61343;53.694;9.988;2022-07-23T08:09:11;4.83;;;1.37;;
73142;SDS011;61343;53.694;9.988;2022-07-23T08:11:36;8.63;;;2.65;;
73142;SDS011;61343;53.694;9.988;2022-07-23T08:14:02;5.50;;;1.63;;
73142;SDS011;61343;53.694;9.988;2022-07-23T08:16:27;4.53;;;1.43;;
73142;SDS011;61343;53.694;9.988;2022-07-23T08:18:53;6.10;;;1.30;;
73142;SDS011;61343;53.694;9.988;2022-07-23T08:21:18;5.93;;;1.43;;
73142;SDS011;61343;53.694;9.988;2022-07-23T08:23:43;6.72;;;1.40;;
73142;SDS011;61343;53.694;9.988;2022-07-23T08:26:09;6.60;;;1.70;;
73142;SDS011;61343;53.694;9.988;2022-07-23T08:28:34;4.20;;;1.20;;
73142;SDS011;61343;53.694;9.988;2022-07-23T08:31:00;5.97;;;1.40;;
73142;SDS011;61343;53.694;9.988;2022-07-23T08:33:25;5.03;;;1.20;;
73142;SDS011;61343;53.694;9.988;2022-07-23T08:35:51;4.57;;;1.40;;
73142;SDS011;61343;53.694;9.988;2022-07-23T08:38:19;4.32;;;1.33;;
73142;SDS011;61343;53.694;9.988;2022-07-23T08:40:46;5.53;;;1.30;;
73142;SDS011;61343;53.694;9.988;2022-07-23T08:43:14;6.72;;;1.63;;
73142;SDS011;61343;53.694;9.988;2022-07-23T08:45:52;5.20;;;1.43;;
73142;SDS011;61343;53.694;9.988;2022-07-23T08:48:22;6.95;;;1.70;;
73142;SDS011;61343;53.694;9.988;2022-07-23T08:50:50;5.32;;;1.40;;
73142;SDS011;61343;53.694;9.988;2022-07-23T08:53:17;4.22;;;1.65;;
73142;SDS011;61343;53.694;9.988;2022-07-23T08:55:47;4.55;;;1.15;;
73142;SDS011;61343;53.694;9.988;2022-07-23T08:58:14;4.83;;;1.23;;
73142;SDS011;61343;53.694;9.988;2022-07-23T09:00:40;5.68;;;1.75;;
73142;SDS011;61343;53.694;9.988;2022-07-23T09:03:05;4.47;;;1.00;;
73142;SDS011;61343;53.694;9.988;2022-07-23T09:05:31;5.20;;;1.03;;
73142;SDS011;61343;53.694;9.988;2022-07-23T09:10:43;4.03;;;1.02;;
73142;SDS011;61343;53.694;9.988;2022-07-23T09:13:41;5.10;;;1.20;;
73142;SDS011;61343;53.694;9.988;2022-07-23T09:18:52;3.30;;;1.10;;
73142;SDS011;61343;53.694;9.988;2022-07-23T09:21:25;4.47;;;1.23;;
73142;SDS011;61343;53.694;9.988;2022-07-23T09:23:56;3.97;;;1.05;;
73142;SDS011;61343;53.694;9.988;2022-07-23T09:26:24;3.67;;;1.45;;
73142;SDS011;61343;53.694;9.988;2022-07-23T09:36:42;3.83;;;1.10;;
73142;SDS011;61343;53.694;9.988;2022-07-23T09:39:08;5.13;;;1.30;;
73142;SDS011;61343;53.694;9.988;2022-07-23T09:41:41;4.93;;;1.20;;
73142;SDS011;61343;53.694;9.988;2022-07-23T09:44:09;4.13;;;1.00;;
73142;SDS011;61343;53.694;9.988;2022-07-23T09:46:43;4.00;;;1.00;;
73142;SDS011;61343;53.694;9.988;2022-07-23T09:49:11;3.55;;;1.10;;
73142;SDS011;61343;53.694;9.988;2022-07-23T09:51:58;4.70;;;1.10;;
73142;SDS011;61343;53.694;9.988;2022-07-23T09:54:27;4.53;;;0.90;;
73142;SDS011;61343;53.694;9.988;2022-07-23T09:56:54;4.00;;;0.80;;
73142;SDS011;61343;53.694;9.988;2022-07-23T09:59:24;4.18;;;1.00;;
73142;SDS011;61343;53.694;9.988;2022-07-23T10:01:52;3.63;;;0.90;;
73142;SDS011;61343;53.694;9.988;2022-07-23T10:04:20;4.00;;;1.00;;
73142;SDS011;61343;53.694;9.988;2022-07-23T10:06:46;3.47;;;1.00;;
73142;SDS011;61343;53.694;9.988;2022-07-23T10:09:12;5.60;;;1.05;;
73142;SDS011;61343;53.694;9.988;2022-07-23T10:11:41;3.00;;;1.00;;
73142;SDS011;61343;53.694;9.988;2022-07-23T10:14:07;3.47;;;0.93;;
73142;SDS011;61343;53.694;9.988;2022-07-23T10:16:32;3.87;;;1.00;;
73142;SDS011;61343;53.694;9.988;2022-07-23T10:18:58;5.27;;;1.10;;
73142;SDS011;61343;53.694;9.988;2022-07-23T10:21:29;3.55;;;1.00;;
73142;SDS011;61343;53.694;9.988;2022-07-23T10:38:37;3.90;;;1.00;;
73142;SDS011;61343;53.694;9.988;2022-07-23T10:41:00;3.30;;;1.00;;
73142;SDS011;61343;53.694;9.988;2022-07-23T10:43:27;3.70;;;1.10;;
73142;SDS011;61343;53.694;9.988;2022-07-23T10:45:53;6.13;;;1.00;;
73142;SDS011;61343;53.694;9.988;2022-07-23T10:48:20;3.73;;;1.30;;
73142;SDS011;61343;53.694;9.988;2022-07-23T10:51:10;5.32;;;1.27;;
73142;SDS011;61343;53.694;9.988;2022-07-23T10:59:28;5.60;;;1.10;;
73142;SDS011;61343;53.694;9.988;2022-07-23T11:01:54;3.67;;;0.90;;
73142;SDS011;61343;53.694;9.988;2022-07-23T11:04:48;3.97;;;0.90;;
73142;SDS011;61343;53.694;9.988;2022-07-23T11:07:17;5.93;;;0.90;;
73142;SDS011;61343;53.694;9.988;2022-07-23T11:09:44;3.88;;;1.00;;
73142;SDS011;61343;53.694;9.988;2022-07-23T11:15:01;3.95;;;0.90;;
73142;SDS011;61343;53.694;9.988;2022-07-23T11:17:30;3.95;;;0.90;;
73142;SDS011;61343;53.694;9.988;2022-07-23T11:22:37;3.50;;;1.23;;
73142;SDS011;61343;53.694;9.988;2022-07-23T11:25:04;3.40;;;0.90;;
73142;SDS011;61343;53.694;9.988;2022-07-23T11:27:36;3.87;;;1.20;;
73142;SDS011;61343;53.694;9.988;2022-07-23T11:30:54;5.47;;;1.10;;
73142;SDS011;61343;53.694;9.988;2022-07-23T11:33:15;3.17;;;1.00;;
73142;SDS011;61343;53.694;9.988;2022-07-23T11:35:44;4.72;;;1.10;;
73142;SDS011;61343;53.694;9.988;2022-07-23T11:40:43;4.18;;;1.02;;
73142;SDS011;61343;53.694;9.988;2022-07-23T11:43:10;5.33;;;1.20;;
73142;SDS011;61343;53.694;9.988;2022-07-23T11:45:36;3.72;;;0.95;;
73142;SDS011;61343;53.694;9.988;2022-07-23T11:48:04;5.47;;;1.13;;
73142;SDS011;61343;53.694;9.988;2022-07-23T11:50:31;6.72;;;1.90;;
73142;SDS011;61343;53.694;9.988;2022-07-23T11:52:57;4.00;;;1.13;;
73142;SDS011;61343;53.694;9.988;2022-07-23T11:55:22;6.07;;;1.50;;
73142;SDS011;61343;53.694;9.988;2022-07-23T11:57:49;7.77;;;2.70;;
73142;SDS011;61343;53.694;9.988;2022-07-23T12:00:18;3.53;;;1.00;;
73142;SDS011;61343;53.694;9.988;2022-07-23T12:02:46;7.78;;;3.08;;
73142;SDS011;61343;53.694;9.988;2022-07-23T12:05:16;6.00;;;1.17;;
73142;SDS011;61343;53.694;9.988;2022-07-23T12:07:43;3.50;;;0.97;;
73142;SDS011;61343;53.694;9.988;2022-07-23T12:12:49;3.35;;;1.00;;
73142;SDS011;61343;53.694;9.988;2022-07-23T12:15:17;3.78;;;1.10;;
73142;SDS011;61343;53.694;9.988;2022-07-23T12:17:47;3.42;;;1.10;;
73142;SDS011;61343;53.694;9.988;2022-07-23T12:20:15;4.07;;;1.40;;
73142;SDS011;61343;53.694;9.988;2022-07-23T12:22:43;4.38;;;1.10;;
73142;SDS011;61343;53.694;9.988;2022-07-23T12:25:12;3.72;;;1.10;;
73142;SDS011;61343;53.694;9.988;2022-07-23T12:27:40;4.70;;;1.00;;
73142;SDS011;61343;53.694;9.988;2022-07-23T12:32:49;4.70;;;1.70;;
73142;SDS011;61343;53.694;9.988;2022-07-23T12:35:17;4.78;;;1.08;;
73142;SDS011;61343;53.694;9.988;2022-07-23T12:37:43;4.60;;;1.00;;
73142;SDS011;61343;53.694;9.988;2022-07-23T12:42:59;4.55;;;1.00;;
73142;SDS011;61343;53.694;9.988;2022-07-23T12:45:27;3.00;;;0.80;;
73142;SDS011;61343;53.694;9.988;2022-07-23T12:48:06;2.67;;;0.80;;
73142;SDS011;61343;53.694;9.988;2022-07-23T12:55:49;3.80;;;1.00;;
73142;SDS011;61343;53.694;9.988;2022-07-23T12:58:15;4.03;;;1.00;;
73142;SDS011;61343;53.694;9.988;2022-07-23T13:01:04;3.93;;;1.10;;
73142;SDS011;61343;53.694;9.988;2022-07-23T13:03:32;3.38;;;1.05;;
73142;SDS011;61343;53.694;9.988;2022-07-23T13:06:00;8.55;;;1.40;;
73142;SDS011;61343;53.694;9.988;2022-07-23T13:08:27;3.28;;;0.90;;
73142;SDS011;61343;53.694;9.988;2022-07-23T13:10:54;3.38;;;0.90;;
73142;SDS011;61343;53.694;9.988;2022-07-23T13:13:20;3.10;;;0.83;;
73142;SDS011;61343;53.694;9.988;2022-07-23T13:15:49;4.25;;;0.90;;
73142;SDS011;61343;53.694;9.988;2022-07-23T13:18:15;3.38;;;0.95;;
73142;SDS011;61343;53.694;9.988;2022-07-23T13:20:41;4.13;;;1.00;;
73142;SDS011;61343;53.694;9.988;2022-07-23T13:23:07;7.43;;;0.98;;
73142;SDS011;61343;53.694;9.988;2022-07-23T13:25:33;4.40;;;1.03;;
73142;SDS011;61343;53.694;9.988;2022-07-23T13:27:58;9.00;;;1.03;;
73142;SDS011;61343;53.694;9.988;2022-07-23T13:30:24;3.45;;;1.17;;
73142;SDS011;61343;53.694;9.988;2022-07-23T13:32:49;4.03;;;1.20;;
73142;SDS011;61343;53.694;9.988;2022-07-23T13:35:14;3.70;;;1.23;;
73142;SDS011;61343;53.694;9.988;2022-07-23T13:37:40;3.30;;;1.10;;
73142;SDS011;61343;53.694;9.988;2022-07-23T13:40:05;3.97;;;1.10;;
73142;SDS011;61343;53.694;9.988;2022-07-23T13:42:31;4.00;;;1.20;;
73142;SDS011;61343;53.694;9.988;2022-07-23T13:44:57;3.33;;;1.00;;
73142;SDS011;61343;53.694;9.988;2022-07-23T13:47:22;3.73;;;0.90;;
73142;SDS011;61343;53.694;9.988;2022-07-23T13:49:47;6.30;;;1.20;;
73142;SDS011;61343;53.694;9.988;2022-07-23T13:52:12;3.87;;;1.17;;
73142;SDS011;61343;53.694;9.988;2022-07-23T13:54:38;3.93;;;1.10;;
73142;SDS011;61343;53.694;9.988;2022-07-23T13:57:03;3.40;;;1.00;;
73142;SDS011;61343;53.694;9.988;2022-07-23T13:59:28;4.37;;;1.20;;
73142;SDS011;61343;53.694;9.988;2022-07-23T14:01:54;4.40;;;1.00;;
73142;SDS011;61343;53.694;9.988;2022-07-23T14:04:20;4.38;;;1.20;;
73142;SDS011;61343;53.694;9.988;2022-07-23T14:06:46;5.30;;;0.97;;
73142;SDS011;61343;53.694;9.988;2022-07-23T14:09:11;4.20;;;1.10;;
73142;SDS011;61343;53.694;9.988;2022-07-23T14:11:36;4.10;;;1.03;;
73142;SDS011;61343;53.694;9.988;2022-07-23T14:14:02;3.97;;;1.10;;
73142;SDS011;61343;53.694;9.988;2022-07-23T14:16:27;4.30;;;1.00;;
73142;SDS011;61343;53.694;9.988;2022-07-23T14:18:52;3.83;;;0.90;;
73142;SDS011;61343;53.694;9.988;2022-07-23T14:21:18;4.03;;;1.00;;
73142;SDS011;61343;53.694;9.988;2022-07-23T14:23:43;3.47;;;1.10;;
73142;SDS011;61343;53.694;9.988;2022-07-23T14:26:09;4.73;;;1.20;;
73142;SDS011;61343;53.694;9.988;2022-07-23T14:28:34;5.10;;;1.20;;
73142;SDS011;61343;53.694;9.988;2022-07-23T14:30:59;5.33;;;1.43;;
73142;SDS011;61343;53.694;9.988;2022-07-23T14:33:25;4.95;;;1.50;;
73142;SDS011;61343;53.694;9.988;2022-07-23T14:35:50;4.10;;;1.20;;
73142;SDS011;61343;53.694;9.988;2022-07-23T14:38:16;3.67;;;1.00;;
73142;SDS011;61343;53.694;9.988;2022-07-23T14:40:41;5.53;;;1.10;;
73142;SDS011;61343;53.694;9.988;2022-07-23T14:43:07;4.65;;;1.10;;
73142;SDS011;61343;53.694;9.988;2022-07-23T14:45:33;4.60;;;1.00;;
73142;SDS011;61343;53.694;9.988;2022-07-23T14:47:59;3.50;;;0.98;;
73142;SDS011;61343;53.694;9.988;2022-07-23T14:50:24;3.53;;;1.00;;
73142;SDS011;61343;53.694;9.988;2022-07-23T14:52:49;4.60;;;1.10;;
73142;SDS011;61343;53.694;9.988;2022-07-23T14:55:15;3.87;;;1.10;;
73142;SDS011;61343;53.694;9.988;2022-07-23T14:57:42;4.78;;;1.02;;
73142;SDS011;61343;53.694;9.988;2022-07-23T15:00:07;4.95;;;1.20;;
73142;SDS011;61343;53.694;9.988;2022-07-23T15:02:34;5.03;;;1.13;;
73142;SDS011;61343;53.694;9.988;2022-07-23T15:04:59;5.23;;;1.20;;
73142;SDS011;61343;53.694;9.988;2022-07-23T15:07:26;4.80;;;1.20;;
73142;SDS011;61343;53.694;9.988;2022-07-23T15:09:52;3.85;;;1.20;;
73142;SDS011;61343;53.694;9.988;2022-07-23T15:12:17;3.43;;;1.00;;
73142;SDS011;61343;53.694;9.988;2022-07-23T15:14:42;4.07;;;1.10;;
73142;SDS011;61343;53.694;9.988;2022-07-23T15:17:08;4.18;;;1.30;;
73142;SDS011;61343;53.694;9.988;2022-07-23T15:19:34;3.93;;;0.90;;
73142;SDS011;61343;53.694;9.988;2022-07-23T15:21:59;3.57;;;1.10;;
73142;SDS011;61343;53.694;9.988;2022-07-23T15:24:24;4.00;;;1.17;;
73142;SDS011;61343;53.694;9.988;2022-07-23T15:26:49;4.27;;;1.10;;
73142;SDS011;61343;53.694;9.988;2022-07-23T15:29:15;4.65;;;1.38;;
73142;SDS011;61343;53.694;9.988;2022-07-23T15:31:40;3.73;;;1.20;;
73142;SDS011;61343;53.694;9.988;2022-07-23T15:34:06;5.17;;;1.70;;
73142;SDS011;61343;53.694;9.988;2022-07-23T15:36:31;5.10;;;1.30;;
73142;SDS011;61343;53.694;9.988;2022-07-23T15:38:56;8.27;;;1.20;;